Time;durP1;ratioP1;P1;durP2;ratioP2;P2;SDS_P1;SDS_P2;PMS_P1;PMS_P2;Temp;Humidity;BMP_temperature;BMP_pressure;BME280_temperature;BME280_humidity;BME280_pressure;Samples;Min_cycle;Max_cycle;Signal;HPM_P1;HPM_P2
2022/12/26 00:01:29;;;;;;;3.15;2.13;;;11.80;99.90;;;;;;5051456;28;20210;-51
2022/12/26 00:03:56;;;;;;;2.13;1.92;;;11.80;99.90;;;;;;5051779;28;20237;-50
2022/12/26 00:06:27;;;;;;;3.83;2.40;;;11.80;99.90;;;;;;5051821;28;20167;-51
2022/12/26 00:08:53;;;;;;;4.03;1.92;;;11.80;99.90;;;;;;5051528;28;20163;-51
2022/12/26 00:11:21;;;;;;;4.10;2.20;;;11.80;99.90;;;;;;5051256;28;20170;-49
2022/12/26 00:13:47;;;;;;;4.32;2.55;;;11.80;99.90;;;;;;5051480;28;20170;-51
2022/12/26 00:16:15;;;;;;;2.83;2.30;;;11.80;99.90;;;;;;5051742;28;20288;-49
2022/12/26 00:18:41;;;;;;;5.13;2.30;;;11.80;99.90;;;;;;5051732;28;20206;-44
2022/12/26 00:21:09;;;;;;;4.55;2.50;;;11.80;99.90;;;;;;5051312;28;20556;-45
2022/12/26 00:23:35;;;;;;;4.53;2.13;;;11.90;99.90;;;;;;5051516;28;20174;-45
2022/12/26 00:26:04;;;;;;;4.05;2.53;;;11.80;99.90;;;;;;5057440;28;20166;-47
2022/12/26 00:28:30;;;;;;;5.78;2.38;;;11.90;99.90;;;;;;5057802;28;20166;-45
2022/12/26 00:30:55;;;;;;;4.32;2.35;;;11.90;99.90;;;;;;5057677;28;20649;-44
2022/12/26 00:33:21;;;;;;;3.05;2.25;;;11.90;99.90;;;;;;5057627;28;20216;-45
2022/12/26 00:35:46;;;;;;;5.78;2.20;;;11.90;99.90;;;;;;5057811;28;20626;-45
2022/12/26 00:38:12;;;;;;;4.85;2.20;;;12.00;99.90;;;;;;5058075;28;20200;-45
2022/12/26 00:40:42;;;;;;;5.82;2.72;;;12.00;99.90;;;;;;5057631;28;20174;-45
2022/12/26 00:43:08;;;;;;;6.32;3.13;;;12.00;99.90;;;;;;5058030;28;20212;-45
2022/12/26 00:45:33;;;;;;;3.03;2.28;;;12.00;99.90;;;;;;5057954;28;20770;-47
2022/12/26 00:47:59;;;;;;;6.07;2.45;;;12.00;99.90;;;;;;5056476;28;20209;-44
2022/12/26 00:50:25;;;;;;;3.42;2.20;;;12.00;99.90;;;;;;5057782;28;20171;-45
2022/12/26 00:52:50;;;;;;;4.60;2.30;;;11.90;99.90;;;;;;5058036;28;20177;-44
2022/12/26 00:55:16;;;;;;;6.32;2.45;;;11.90;99.90;;;;;;5057422;28;20186;-45
2022/12/26 00:57:41;;;;;;;5.10;2.55;;;11.90;99.90;;;;;;5058027;28;20190;-45
2022/12/26 01:00:08;;;;;;;5.75;2.45;;;11.90;99.90;;;;;;5056390;28;20183;-44
2022/12/26 01:02:39;;;;;;;4.80;2.45;;;12.00;99.90;;;;;;5057546;28;20210;-45
2022/12/26 01:05:10;;;;;;;4.30;2.15;;;12.00;99.90;;;;;;5057643;28;20163;-45
2022/12/26 01:07:37;;;;;;;3.22;2.30;;;12.00;99.90;;;;;;5057453;28;20170;-46
2022/12/26 01:10:07;;;;;;;4.40;2.17;;;12.00;99.90;;;;;;5056305;28;20182;-44
2022/12/26 01:12:33;;;;;;;5.18;2.60;;;11.90;99.90;;;;;;5057573;28;20261;-48
2022/12/26 01:15:00;;;;;;;3.83;2.20;;;12.00;99.90;;;;;;5057798;28;20285;-44
2022/12/26 01:17:27;;;;;;;3.50;2.10;;;12.00;99.90;;;;;;5057545;28;20710;-45
2022/12/26 01:19:53;;;;;;;4.78;2.45;;;12.00;99.90;;;;;;5057440;28;20209;-44
2022/12/26 01:22:19;;;;;;;3.83;2.20;;;12.00;99.90;;;;;;5057502;28;20169;-44
2022/12/26 01:24:45;;;;;;;6.53;2.15;;;12.00;99.90;;;;;;5057153;28;20178;-44
2022/12/26 01:27:11;;;;;;;3.60;2.25;;;12.00;99.90;;;;;;5057790;28;20241;-44
2022/12/26 01:29:36;;;;;;;5.60;2.80;;;12.00;99.90;;;;;;5057363;28;20171;-45
2022/12/26 01:32:02;;;;;;;3.92;2.15;;;12.10;99.90;;;;;;5057389;28;20162;-48
2022/12/26 01:34:28;;;;;;;4.05;2.25;;;12.10;99.90;;;;;;5057614;28;20185;-44
2022/12/26 01:36:54;;;;;;;5.85;1.90;;;12.10;99.90;;;;;;5053709;28;20167;-45
2022/12/26 01:39:20;;;;;;;5.35;2.85;;;12.10;99.90;;;;;;5053836;28;20218;-48
2022/12/26 01:41:46;;;;;;;5.25;2.30;;;12.10;99.90;;;;;;5054099;28;20178;-44
2022/12/26 01:44:49;;;;;;;7.35;2.85;;;12.10;99.90;;;;;;5054210;28;20171;-47
2022/12/26 01:47:15;;;;;;;4.18;2.22;;;12.10;99.90;;;;;;5054501;28;20190;-44
2022/12/26 01:49:43;;;;;;;4.63;2.90;;;12.10;99.90;;;;;;5054623;28;20212;-45
2022/12/26 01:52:23;;;;;;;4.65;2.30;;;12.10;99.90;;;;;;5054617;28;20171;-44
2022/12/26 01:54:51;;;;;;;5.32;2.10;;;12.10;99.90;;;;;;5054160;28;20661;-44
2022/12/26 01:57:27;;;;;;;4.28;2.25;;;12.10;99.90;;;;;;5054072;28;20614;-46
2022/12/26 01:59:55;;;;;;;4.70;2.15;;;12.10;99.90;;;;;;5054114;28;20206;-45
2022/12/26 02:02:23;;;;;;;5.45;2.25;;;12.10;99.90;;;;;;5053865;28;20210;-43
2022/12/26 02:07:38;;;;;;;4.38;2.25;;;12.00;99.90;;;;;;5053913;28;20228;-44
2022/12/26 02:10:08;;;;;;;3.17;2.53;;;12.10;99.90;;;;;;5053914;28;20225;-45
2022/12/26 02:12:35;;;;;;;2.45;2.13;;;12.00;99.90;;;;;;5053509;28;20162;-44
2022/12/26 02:15:03;;;;;;;4.57;2.03;;;12.10;99.90;;;;;;5053989;28;20529;-45
2022/12/26 02:17:29;;;;;;;4.22;2.05;;;12.10;99.90;;;;;;5053589;28;20257;-44
2022/12/26 02:20:02;;;;;;;4.85;2.58;;;12.10;99.90;;;;;;5053312;28;20285;-45
2022/12/26 02:22:54;;;;;;;6.28;2.15;;;12.10;99.90;;;;;;5053493;28;20171;-44
2022/12/26 02:25:38;;;;;;;2.97;2.20;;;12.10;99.90;;;;;;5045426;28;20183;-48
2022/12/26 02:28:36;;;;;;;3.40;2.58;;;12.10;99.90;;;;;;5053542;28;20162;-46
2022/12/26 02:31:13;;;;;;;5.05;1.98;;;12.10;99.90;;;;;;5041173;28;20214;-44
2022/12/26 02:33:48;;;;;;;4.13;2.15;;;12.00;99.90;;;;;;5053819;28;20653;-45
2022/12/26 02:36:30;;;;;;;4.53;2.13;;;12.10;99.90;;;;;;5053362;28;20661;-45
2022/12/26 02:39:29;;;;;;;5.07;2.20;;;12.20;99.90;;;;;;5052338;28;20206;-44
2022/12/26 02:42:16;;;;;;;2.95;1.95;;;12.10;99.90;;;;;;5053529;28;20167;-44
2022/12/26 02:47:56;;;;;;;3.70;2.05;;;12.10;99.90;;;;;;5052712;28;20178;-45
2022/12/26 03:14:06;;;;;;;3.22;2.45;;;11.60;99.90;;;;;;5052820;28;20180;-53
2022/12/26 03:19:20;;;;;;;6.68;2.47;;;11.60;99.90;;;;;;5052643;28;20213;-52
2022/12/26 03:21:46;;;;;;;3.08;2.03;;;11.50;99.90;;;;;;5052616;28;20167;-52
2022/12/26 03:24:14;;;;;;;4.45;2.20;;;11.40;99.90;;;;;;5052961;28;20245;-52
2022/12/26 03:26:49;;;;;;;4.43;2.25;;;11.40;99.90;;;;;;5052766;28;20173;-52
2022/12/26 03:32:07;;;;;;;2.78;2.08;;;11.40;99.90;;;;;;5052588;28;20598;-52
2022/12/26 03:34:36;;;;;;;5.53;2.50;;;11.40;99.90;;;;;;5052279;28;20809;-52
2022/12/26 03:37:35;;;;;;;2.30;2.10;;;11.30;99.90;;;;;;5052300;28;20166;-53
2022/12/26 04:41:34;;;;;;;2.88;2.60;;;11.00;99.90;;;;;;5051775;28;20166;-49
2022/12/26 04:44:10;;;;;;;5.18;3.00;;;11.00;99.90;;;;;;5051684;28;20174;-52
2022/12/26 04:46:49;;;;;;;3.70;3.20;;;11.00;99.90;;;;;;5051401;28;20166;-52
2022/12/26 04:52:03;;;;;;;4.00;3.35;;;11.10;99.90;;;;;;5051654;28;20537;-52
2022/12/26 04:54:28;;;;;;;3.40;3.03;;;11.00;99.90;;;;;;5051311;28;20220;-52
2022/12/26 04:56:54;;;;;;;4.43;3.50;;;11.00;99.90;;;;;;5051612;28;20179;-52
2022/12/26 04:59:21;;;;;;;4.95;3.15;;;11.00;99.90;;;;;;5051190;28;20202;-51
2022/12/26 05:10:23;;;;;;;4.15;3.38;;;11.00;99.90;;;;;;5052311;28;20221;-52
2022/12/26 05:12:50;;;;;;;3.78;2.72;;;11.00;99.90;;;;;;5055012;28;20170;-52
2022/12/26 05:15:15;;;;;;;3.90;3.45;;;11.00;99.90;;;;;;5055009;28;20163;-50
2022/12/26 05:28:41;;;;;;;4.05;2.10;;;11.10;99.90;;;;;;5054891;28;20224;-52
2022/12/26 05:31:09;;;;;;;3.03;1.38;;;11.10;99.90;;;;;;5054769;28;20166;-52
2022/12/26 05:36:20;;;;;;;2.85;1.30;;;11.00;99.90;;;;;;5054567;28;20177;-52
2022/12/26 05:38:47;;;;;;;1.58;1.35;;;11.00;99.90;;;;;;5054369;28;20206;-48
2022/12/26 05:41:13;;;;;;;1.73;1.23;;;11.00;99.90;;;;;;5054702;28;20536;-43
2022/12/26 05:43:38;;;;;;;2.17;1.45;;;10.90;99.90;;;;;;5054609;28;20155;-50
2022/12/26 05:46:05;;;;;;;3.20;1.30;;;10.90;99.90;;;;;;5054346;28;20175;-53
2022/12/26 05:48:30;;;;;;;3.60;1.50;;;10.90;99.90;;;;;;5053144;28;20514;-52
2022/12/26 05:51:00;;;;;;;3.20;1.77;;;10.90;99.90;;;;;;5054247;28;20178;-52
2022/12/26 05:53:27;;;;;;;2.28;1.60;;;10.90;99.90;;;;;;5054248;28;20181;-51
2022/12/26 05:55:53;;;;;;;1.60;1.50;;;10.90;99.90;;;;;;5054186;28;20175;-53
2022/12/26 05:58:18;;;;;;;1.60;1.40;;;10.90;99.90;;;;;;5054189;28;20205;-52
2022/12/26 06:00:44;;;;;;;1.70;1.50;;;10.80;99.90;;;;;;5054070;28;20201;-50
2022/12/26 06:03:10;;;;;;;5.78;1.90;;;10.90;99.90;;;;;;5054236;28;20717;-52
2022/12/26 06:05:35;;;;;;;1.77;1.45;;;10.90;99.90;;;;;;5054026;28;20167;-51
2022/12/26 06:08:01;;;;;;;1.60;1.50;;;10.80;99.90;;;;;;5053906;28;20177;-52
2022/12/26 06:10:28;;;;;;;3.65;1.98;;;10.90;99.90;;;;;;5051762;28;20174;-51
2022/12/26 06:12:54;;;;;;;2.72;1.95;;;10.80;99.90;;;;;;5053863;28;20166;-52
2022/12/26 06:15:20;;;;;;;1.75;1.60;;;10.80;99.90;;;;;;5053694;28;20661;-51
2022/12/26 06:17:45;;;;;;;2.08;1.40;;;10.80;99.90;;;;;;5053733;28;20171;-52
2022/12/26 06:20:11;;;;;;;2.63;1.52;;;10.80;99.90;;;;;;5054207;28;20689;-52
2022/12/26 06:22:36;;;;;;;2.78;1.50;;;10.80;99.90;;;;;;5052259;28;20548;-52
2022/12/26 06:25:02;;;;;;;1.45;1.02;;;10.80;99.90;;;;;;5053351;28;20580;-50
2022/12/26 06:27:28;;;;;;;2.13;1.52;;;10.70;99.90;;;;;;5053580;28;20521;-52
2022/12/26 06:29:53;;;;;;;1.48;1.10;;;10.80;99.90;;;;;;5053299;28;20630;-52
2022/12/26 06:32:19;;;;;;;2.15;1.35;;;10.70;99.90;;;;;;5053275;28;20704;-52
2022/12/26 06:34:44;;;;;;;1.33;1.10;;;10.70;99.90;;;;;;5053177;28;20649;-52
2022/12/26 06:37:10;;;;;;;2.38;1.20;;;10.70;99.90;;;;;;5053290;28;20531;-52
2022/12/26 06:39:35;;;;;;;1.88;0.90;;;10.80;99.90;;;;;;5053012;28;20519;-51
2022/12/26 06:42:01;;;;;;;1.40;0.90;;;10.70;99.90;;;;;;5053096;28;20181;-52
2022/12/26 06:44:27;;;;;;;1.20;1.10;;;10.70;99.90;;;;;;5053510;28;20598;-45
2022/12/26 06:46:53;;;;;;;1.80;1.08;;;10.70;99.90;;;;;;5051722;28;20179;-52
2022/12/26 06:49:18;;;;;;;1.48;1.30;;;10.70;99.90;;;;;;5053000;28;20511;-52
2022/12/26 06:51:44;;;;;;;0.80;0.80;;;10.80;99.90;;;;;;5052704;28;20674;-44
2022/12/26 06:54:10;;;;;;;1.45;1.35;;;10.70;99.90;;;;;;5053268;28;20533;-45
2022/12/26 06:56:35;;;;;;;3.47;1.30;;;10.70;99.90;;;;;;5052883;28;20194;-46
2022/12/26 06:59:03;;;;;;;1.30;0.98;;;10.70;99.90;;;;;;5051412;28;20704;-44
2022/12/26 07:01:31;;;;;;;1.00;1.00;;;10.70;99.90;;;;;;5052702;28;20215;-45
2022/12/26 07:03:57;;;;;;;1.73;1.25;;;10.70;99.90;;;;;;5052644;28;20254;-46
2022/12/26 07:06:28;;;;;;;1.10;0.98;;;10.80;99.90;;;;;;5052386;28;20194;-48
2022/12/26 07:09:09;;;;;;;1.45;1.35;;;10.70;99.90;;;;;;5052862;28;20179;-46
2022/12/26 07:11:37;;;;;;;1.20;1.02;;;10.70;99.90;;;;;;5052439;28;20673;-44
2022/12/26 07:14:04;;;;;;;0.82;0.82;;;10.70;99.90;;;;;;5052545;28;20615;-44
2022/12/26 07:16:32;;;;;;;0.80;0.80;;;10.70;99.90;;;;;;5052369;28;20167;-44
2022/12/26 07:18:58;;;;;;;1.20;1.10;;;10.70;99.90;;;;;;5052278;28;20677;-44
2022/12/26 07:21:24;;;;;;;0.85;0.80;;;10.70;99.90;;;;;;5052347;28;20296;-44
2022/12/26 07:23:50;;;;;;;0.80;0.80;;;10.70;99.90;;;;;;5052293;28;20171;-43
2022/12/26 07:26:16;;;;;;;0.85;0.85;;;10.70;99.90;;;;;;5052491;28;20261;-44
2022/12/26 07:28:42;;;;;;;0.80;0.80;;;10.60;99.90;;;;;;5050910;28;20674;-44
2022/12/26 07:31:08;;;;;;;0.90;0.90;;;10.70;99.90;;;;;;5052490;28;20194;-44
2022/12/26 07:33:34;;;;;;;1.77;0.90;;;10.60;99.90;;;;;;5051406;28;20202;-44
2022/12/26 07:36:01;;;;;;;1.00;0.90;;;10.60;99.90;;;;;;5051430;28;20254;-44
2022/12/26 07:38:27;;;;;;;1.10;0.90;;;10.60;99.90;;;;;;5050588;28;20547;-43
2022/12/26 07:40:55;;;;;;;0.70;0.70;;;10.60;99.90;;;;;;5052011;28;20217;-44
2022/12/26 07:43:22;;;;;;;1.30;0.60;;;10.60;99.90;;;;;;5051810;28;20163;-52
2022/12/26 07:45:47;;;;;;;1.20;1.10;;;10.60;99.90;;;;;;5051807;28;20171;-44
2022/12/26 07:48:13;;;;;;;0.63;0.63;;;10.50;99.90;;;;;;5052201;28;20516;-44
2022/12/26 07:50:39;;;;;;;1.25;0.85;;;10.60;99.90;;;;;;5052416;28;20162;-45
2022/12/26 07:53:04;;;;;;;1.50;1.20;;;10.50;99.90;;;;;;5051976;28;20518;-44
2022/12/26 07:55:30;;;;;;;1.90;0.80;;;10.50;99.90;;;;;;5051943;28;20202;-44
2022/12/26 07:57:55;;;;;;;1.23;0.88;;;10.50;99.90;;;;;;5052134;28;20171;-44
2022/12/26 08:00:21;;;;;;;2.08;1.10;;;10.50;99.90;;;;;;5051869;28;20211;-44
2022/12/26 08:02:48;;;;;;;0.68;0.68;;;10.50;99.90;;;;;;5051744;28;20229;-43
2022/12/26 08:05:15;;;;;;;3.17;1.30;;;10.50;99.90;;;;;;5052117;28;20167;-44
2022/12/26 08:07:41;;;;;;;1.33;0.90;;;10.50;99.90;;;;;;5052345;28;20166;-43
2022/12/26 08:10:06;;;;;;;2.50;1.25;;;10.50;99.90;;;;;;5052353;28;20163;-44
2022/12/26 08:12:33;;;;;;;2.38;1.30;;;10.50;99.90;;;;;;5051734;28;20166;-44
2022/12/26 08:14:58;;;;;;;1.83;1.48;;;10.50;99.90;;;;;;5050444;28;20173;-44
2022/12/26 08:17:24;;;;;;;3.83;1.55;;;10.50;99.90;;;;;;5051687;28;20175;-44
2022/12/26 08:19:50;;;;;;;2.67;2.03;;;10.40;99.90;;;;;;5051794;28;20677;-44
2022/12/26 08:22:16;;;;;;;1.65;1.08;;;10.50;99.90;;;;;;5051615;28;20229;-44
2022/12/26 08:24:41;;;;;;;6.93;1.38;;;10.50;99.90;;;;;;5051633;28;20266;-44
2022/12/26 08:27:07;;;;;;;2.25;1.40;;;10.60;99.90;;;;;;5051893;28;20175;-44
2022/12/26 08:29:32;;;;;;;0.95;0.90;;;10.60;99.90;;;;;;5051562;28;20194;-44
2022/12/26 08:31:58;;;;;;;1.58;0.93;;;10.60;99.90;;;;;;5051785;28;20177;-49
2022/12/26 08:34:24;;;;;;;5.95;1.40;;;10.60;99.90;;;;;;5051559;28;20653;-44
2022/12/26 08:36:50;;;;;;;5.75;1.80;;;10.60;99.90;;;;;;5051521;28;20171;-52
2022/12/26 08:39:16;;;;;;;2.65;1.10;;;10.60;99.90;;;;;;5051725;28;20214;-45
2022/12/26 08:41:42;;;;;;;3.47;1.38;;;10.60;99.90;;;;;;5051375;28;20217;-44
2022/12/26 08:44:09;;;;;;;2.97;1.35;;;10.60;99.90;;;;;;5017620;28;20630;-44
2022/12/26 08:46:34;;;;;;;2.33;1.17;;;10.60;99.90;;;;;;5054445;28;20257;-48
2022/12/26 08:49:00;;;;;;;1.20;1.10;;;10.60;99.90;;;;;;5055411;28;20209;-44
2022/12/26 08:51:25;;;;;;;2.42;1.27;;;10.60;99.90;;;;;;5055403;28;20181;-43
2022/12/26 08:53:53;;;;;;;1.88;0.95;;;10.60;99.90;;;;;;5055416;28;20171;-44
2022/12/26 08:56:21;;;;;;;3.17;1.35;;;10.60;99.90;;;;;;5055282;28;20181;-44
2022/12/26 08:58:47;;;;;;;2.00;1.27;;;10.70;99.90;;;;;;5055186;28;20289;-44
2022/12/26 09:01:15;;;;;;;3.38;1.35;;;10.70;99.90;;;;;;5055149;28;20344;-44
2022/12/26 09:03:42;;;;;;;1.48;1.17;;;10.70;99.90;;;;;;5055427;28;20170;-45
2022/12/26 09:06:09;;;;;;;2.08;1.33;;;10.80;99.90;;;;;;5055381;28;20175;-45
2022/12/26 09:08:35;;;;;;;1.70;1.08;;;10.80;99.90;;;;;;5055020;28;20206;-50
2022/12/26 09:11:07;;;;;;;2.72;1.40;;;10.90;99.90;;;;;;5055037;28;20589;-49
2022/12/26 09:13:33;;;;;;;2.20;1.50;;;10.90;99.90;;;;;;5054890;28;20768;-50
2022/12/26 09:16:12;;;;;;;2.50;1.45;;;10.90;99.90;;;;;;5054915;28;20167;-50
2022/12/26 09:18:38;;;;;;;1.70;1.13;;;10.90;99.90;;;;;;5055190;28;20194;-45
2022/12/26 09:21:06;;;;;;;3.10;1.85;;;10.90;99.90;;;;;;5054859;28;20631;-46
2022/12/26 09:23:33;;;;;;;1.73;1.20;;;11.00;99.90;;;;;;5054817;28;20248;-44
2022/12/26 09:26:08;;;;;;;3.25;1.70;;;11.00;99.90;;;;;;5054669;28;20631;-49
2022/12/26 09:28:34;;;;;;;1.60;1.30;;;11.00;99.90;;;;;;5053333;28;20177;-50
2022/12/26 09:31:01;;;;;;;3.10;1.30;;;11.00;99.90;;;;;;5054911;28;20205;-45
2022/12/26 09:33:29;;;;;;;1.00;0.90;;;11.00;99.90;;;;;;5054621;28;20171;-45
2022/12/26 09:35:55;;;;;;;1.33;1.08;;;11.00;99.90;;;;;;5054867;28;20534;-52
2022/12/26 09:38:21;;;;;;;5.38;1.38;;;11.00;99.90;;;;;;5054337;28;20242;-52
2022/12/26 09:41:21;;;;;;;3.72;1.25;;;11.00;99.90;;;;;;5054786;28;20258;-44
2022/12/26 09:43:53;;;;;;;3.33;1.30;;;10.90;99.90;;;;;;5054700;28;20572;-43
2022/12/26 09:46:29;;;;;;;1.98;1.20;;;10.90;99.90;;;;;;5054578;28;20177;-43
2022/12/26 09:49:15;;;;;;;2.67;1.00;;;11.00;99.90;;;;;;5054316;28;20641;-43
2022/12/26 09:51:45;;;;;;;4.00;1.25;;;11.00;99.90;;;;;;5054800;28;20623;-45
2022/12/26 09:54:19;;;;;;;2.92;1.17;;;11.10;99.90;;;;;;5054710;28;20229;-44
2022/12/26 09:56:45;;;;;;;2.42;1.13;;;11.10;99.90;;;;;;5053294;28;20187;-50
2022/12/26 09:59:17;;;;;;;2.45;1.20;;;11.20;99.90;;;;;;5054315;28;20256;-45
2022/12/26 10:01:43;;;;;;;1.45;1.10;;;11.20;99.90;;;;;;5054095;28;20582;-44
2022/12/26 10:04:26;;;;;;;1.50;0.95;;;11.20;99.90;;;;;;5054609;28;20185;-45
2022/12/26 10:07:27;;;;;;;2.22;1.20;;;11.20;99.90;;;;;;5054005;28;20249;-44
2022/12/26 10:10:06;;;;;;;0.80;0.80;;;11.30;99.90;;;;;;5054108;28;20613;-45
2022/12/26 10:12:50;;;;;;;3.92;1.10;;;11.30;99.90;;;;;;5053917;28;20189;-44
2022/12/26 10:15:34;;;;;;;1.20;1.10;;;11.30;99.90;;;;;;5054065;28;20594;-45
2022/12/26 10:18:24;;;;;;;1.55;1.10;;;11.20;99.90;;;;;;5053884;28;20167;-44
2022/12/26 10:21:25;;;;;;;4.93;1.60;;;11.20;99.90;;;;;;5053377;28;20183;-44
2022/12/26 10:23:57;;;;;;;2.05;1.08;;;11.20;99.90;;;;;;5053228;28;20182;-51
2022/12/26 10:26:30;;;;;;;1.33;1.20;;;11.20;99.90;;;;;;5053658;28;20249;-50
2022/12/26 10:29:11;;;;;;;0.73;0.70;;;11.20;99.90;;;;;;5053333;28;20167;-50
2022/12/26 10:31:57;;;;;;;3.63;1.42;;;11.20;99.90;;;;;;5053615;28;20638;-49
2022/12/26 10:34:26;;;;;;;2.08;1.30;;;11.20;99.90;;;;;;5053379;28;20542;-51
2022/12/26 10:37:06;;;;;;;1.77;1.27;;;11.20;99.90;;;;;;5053354;28;20241;-49
2022/12/26 10:39:53;;;;;;;1.67;0.93;;;11.20;99.90;;;;;;5053200;28;20280;-51
2022/12/26 10:42:40;;;;;;;2.75;1.10;;;11.20;99.90;;;;;;5053249;28;20232;-47
2022/12/26 10:45:15;;;;;;;3.25;1.15;;;11.20;99.90;;;;;;5052724;28;20557;-46
2022/12/26 10:47:45;;;;;;;2.17;1.10;;;11.20;99.90;;;;;;5053496;28;20656;-45
2022/12/26 10:50:23;;;;;;;2.83;0.90;;;11.30;99.90;;;;;;5053492;28;20167;-48
2022/12/26 10:52:50;;;;;;;3.13;1.13;;;11.30;99.90;;;;;;5053021;28;20166;-50
2022/12/26 10:55:18;;;;;;;2.10;0.90;;;11.30;99.90;;;;;;5052860;28;20631;-50
2022/12/26 10:57:47;;;;;;;4.03;1.52;;;11.30;99.90;;;;;;5053259;28;20184;-49
2022/12/26 11:00:20;;;;;;;5.28;1.40;;;11.30;99.90;;;;;;5052905;28;20203;-47
2022/12/26 11:03:08;;;;;;;1.88;1.10;;;11.30;99.90;;;;;;5052594;28;20556;-49
2022/12/26 11:05:37;;;;;;;2.67;1.20;;;11.30;99.90;;;;;;5052265;28;20705;-48
2022/12/26 11:08:17;;;;;;;3.08;1.48;;;11.30;99.90;;;;;;5052687;28;20198;-44
2022/12/26 11:10:59;;;;;;;3.13;1.52;;;11.20;99.90;;;;;;5052643;28;20224;-51
2022/12/26 11:13:25;;;;;;;2.97;1.33;;;11.20;99.90;;;;;;5052579;28;20166;-51
2022/12/26 11:15:52;;;;;;;3.42;1.08;;;11.20;99.90;;;;;;5052713;28;20175;-50
2022/12/26 11:18:36;;;;;;;3.00;1.02;;;11.30;99.90;;;;;;5052392;28;20167;-50
2022/12/26 11:21:22;;;;;;;1.73;1.10;;;11.30;99.90;;;;;;5052489;28;20206;-49
2022/12/26 11:23:51;;;;;;;2.75;1.23;;;11.20;99.90;;;;;;5052495;28;20167;-44
2022/12/26 11:26:25;;;;;;;4.03;1.30;;;11.20;99.90;;;;;;5052654;28;20175;-44
2022/12/26 11:29:09;;;;;;;2.55;0.80;;;11.30;99.90;;;;;;5052670;28;20174;-45
2022/12/26 11:31:35;;;;;;;4.57;0.90;;;11.20;99.90;;;;;;5052391;28;20557;-44
2022/12/26 11:34:07;;;;;;;2.60;1.15;;;11.30;99.90;;;;;;5052590;28;20224;-46
2022/12/26 11:36:36;;;;;;;3.63;0.93;;;11.30;99.90;;;;;;5052281;28;20177;-46
2022/12/26 11:39:17;;;;;;;4.30;1.33;;;11.30;99.90;;;;;;5051943;28;20241;-46
2022/12/26 11:41:45;;;;;;;3.33;1.30;;;11.40;99.90;;;;;;5052154;28;20171;-44
2022/12/26 11:44:22;;;;;;;3.58;1.00;;;11.40;99.90;;;;;;5052454;28;20167;-44
2022/12/26 11:47:07;;;;;;;2.20;0.93;;;11.50;99.90;;;;;;5052164;28;20201;-44
2022/12/26 11:49:35;;;;;;;1.52;1.10;;;11.50;99.90;;;;;;5051746;28;20162;-45
2022/12/26 11:52:22;;;;;;;4.72;1.50;;;11.50;99.90;;;;;;5052028;28;20623;-44
2022/12/26 11:54:50;;;;;;;6.03;1.20;;;11.40;99.90;;;;;;5051866;28;20219;-44
2022/12/26 11:57:21;;;;;;;3.70;0.90;;;11.40;99.90;;;;;;5052129;28;20224;-45
2022/12/26 11:59:49;;;;;;;2.63;1.15;;;11.40;99.90;;;;;;5051861;28;20248;-44
2022/12/26 12:02:29;;;;;;;1.73;0.75;;;11.40;99.90;;;;;;5051667;28;20214;-45
2022/12/26 12:05:01;;;;;;;2.42;1.08;;;11.40;99.90;;;;;;5051879;28;20250;-45
2022/12/26 12:07:38;;;;;;;1.13;1.00;;;11.40;99.90;;;;;;5051780;28;20250;-44
2022/12/26 12:10:38;;;;;;;2.80;1.13;;;11.40;99.90;;;;;;5051785;28;20249;-44
2022/12/26 12:13:12;;;;;;;2.65;0.90;;;11.30;99.90;;;;;;5051777;28;20170;-44
2022/12/26 12:16:00;;;;;;;1.10;0.95;;;11.40;99.90;;;;;;5052051;28;20619;-44
2022/12/26 12:18:50;;;;;;;2.53;0.73;;;11.30;99.90;;;;;;5051800;28;20357;-44
2022/12/26 12:21:35;;;;;;;2.97;1.35;;;11.30;99.90;;;;;;5051335;28;20327;-44
2022/12/26 12:24:21;;;;;;;1.67;1.05;;;11.30;99.90;;;;;;5051853;28;20188;-45
2022/12/26 12:27:12;;;;;;;3.22;1.40;;;11.30;99.90;;;;;;5051630;28;20634;-46
2022/12/26 12:30:02;;;;;;;3.05;0.88;;;11.20;99.90;;;;;;5052024;28;20170;-45
2022/12/26 12:32:30;;;;;;;3.63;1.30;;;11.20;99.90;;;;;;5051439;28;20178;-45
2022/12/26 12:35:20;;;;;;;2.33;1.33;;;11.20;99.90;;;;;;5051507;28;20642;-44
2022/12/26 12:38:11;;;;;;;1.45;0.82;;;11.10;99.90;;;;;;5051558;28;20221;-45
2022/12/26 12:40:59;;;;;;;1.13;0.73;;;11.10;99.90;;;;;;5051810;28;20544;-44
2022/12/26 12:43:48;;;;;;;2.85;1.20;;;11.10;99.90;;;;;;5051423;28;20171;-45
2022/12/26 12:46:52;;;;;;;4.63;1.63;;;11.20;99.90;;;;;;5051414;28;20589;-44
2022/12/26 12:49:44;;;;;;;3.83;1.52;;;11.20;99.90;;;;;;5039229;28;20190;-45
2022/12/26 12:52:30;;;;;;;5.20;1.63;;;11.30;99.90;;;;;;5051687;28;20167;-44
2022/12/26 12:55:04;;;;;;;2.40;0.93;;;11.30;99.90;;;;;;5051367;28;20173;-44
2022/12/26 12:57:45;;;;;;;1.25;1.05;;;11.30;99.90;;;;;;5051529;28;20175;-46
2022/12/26 13:00:18;;;;;;;1.60;1.27;;;11.20;99.90;;;;;;5051406;28;20241;-46
2022/12/26 13:03:17;;;;;;;3.03;1.35;;;11.30;99.90;;;;;;5051039;28;20301;-51
2022/12/26 13:05:50;;;;;;;5.70;1.45;;;11.20;99.90;;;;;;5050941;28;20171;-51
2022/12/26 13:08:29;;;;;;;4.07;1.27;;;11.30;99.90;;;;;;5050943;28;20171;-51
2022/12/26 13:11:08;;;;;;;2.63;1.05;;;11.30;99.90;;;;;;5051171;28;20169;-51
2022/12/26 13:13:41;;;;;;;4.50;1.50;;;11.20;99.90;;;;;;5051218;28;20665;-51
2022/12/26 13:16:16;;;;;;;4.43;1.50;;;11.10;99.90;;;;;;5051498;28;20171;-52
2022/12/26 13:18:54;;;;;;;3.10;0.90;;;10.90;99.90;;;;;;5051084;28;20197;-51
2022/12/26 13:21:21;;;;;;;1.75;1.10;;;10.70;99.90;;;;;;5051089;28;20638;-50
2022/12/26 13:26:48;;;;;;;0.90;0.77;;;10.60;99.90;;;;;;5051694;28;20174;-51
2022/12/26 13:29:33;;;;;;;1.65;0.80;;;10.50;99.90;;;;;;5051236;28;20186;-51
2022/12/26 13:32:00;;;;;;;2.15;0.90;;;10.50;99.90;;;;;;5052694;28;20253;-52
2022/12/26 13:34:25;;;;;;;3.80;1.40;;;10.50;99.90;;;;;;5054639;28;20271;-52
2022/12/26 13:36:54;;;;;;;1.58;1.20;;;10.40;99.90;;;;;;5054626;28;20678;-51
2022/12/26 13:39:22;;;;;;;1.90;1.27;;;10.40;99.90;;;;;;5054703;28;20194;-51
2022/12/26 13:45:36;;;;;;;1.92;1.40;;;10.20;99.90;;;;;;5054670;28;20726;-51
2022/12/26 13:48:08;;;;;;;1.88;1.10;;;10.20;99.90;;;;;;5054367;28;20630;-51
2022/12/26 13:50:49;;;;;;;5.05;1.23;;;10.00;99.90;;;;;;5054538;28;20627;-52
2022/12/26 13:53:24;;;;;;;1.33;1.20;;;9.90;99.90;;;;;;5054361;28;20174;-48
2022/12/26 13:55:54;;;;;;;5.30;1.88;;;9.90;99.90;;;;;;5054207;28;20170;-49
2022/12/26 13:59:02;;;;;;;2.40;1.40;;;9.80;99.90;;;;;;5054133;28;20175;-49
2022/12/26 14:01:49;;;;;;;2.58;1.38;;;9.70;99.90;;;;;;5054005;28;20215;-50
2022/12/26 14:04:50;;;;;;;3.83;1.77;;;9.80;99.90;;;;;;5053992;28;20167;-50
2022/12/26 14:07:57;;;;;;;4.32;2.03;;;9.80;99.90;;;;;;5054063;28;20169;-50
2022/12/26 14:10:42;;;;;;;4.32;2.10;;;9.80;99.90;;;;;;5053469;28;20630;-50
2022/12/26 14:13:38;;;;;;;6.90;2.78;;;9.80;99.90;;;;;;5054460;28;20178;-46
2022/12/26 14:16:29;;;;;;;1.88;1.30;;;9.80;99.90;;;;;;5054112;28;20171;-52
2022/12/26 14:19:24;;;;;;;7.05;1.63;;;9.30;99.90;;;;;;5053988;28;20206;-51
2022/12/26 14:22:06;;;;;;;8.18;2.40;;;9.90;99.90;;;;;;5054001;28;20220;-51
2022/12/26 14:25:02;;;;;;;5.30;1.90;;;9.80;99.90;;;;;;5053571;28;20642;-51
2022/12/26 14:27:47;;;;;;;5.38;1.90;;;9.90;99.90;;;;;;5053008;28;20249;-51
2022/12/26 14:30:51;;;;;;;7.53;2.20;;;9.90;99.90;;;;;;5053458;28;20510;-51
2022/12/26 14:33:29;;;;;;;4.60;1.80;;;9.90;99.90;;;;;;5053507;28;20216;-51
2022/12/26 14:36:17;;;;;;;5.88;2.25;;;9.90;99.90;;;;;;5053720;28;20193;-51
2022/12/26 14:39:02;;;;;;;4.65;1.70;;;9.80;99.90;;;;;;5053091;28;20256;-51
2022/12/26 14:44:31;;;;;;;6.75;2.63;;;9.70;99.90;;;;;;5052625;28;20185;-51
2022/12/26 14:47:00;;;;;;;3.08;1.60;;;9.70;99.90;;;;;;5053255;28;20171;-51
2022/12/26 14:49:31;;;;;;;3.17;1.80;;;9.70;99.90;;;;;;5053041;28;20197;-52
2022/12/26 14:52:24;;;;;;;4.72;1.83;;;9.70;99.90;;;;;;5053232;28;20171;-51
2022/12/26 14:54:54;;;;;;;7.18;1.80;;;9.60;99.90;;;;;;5052937;28;20162;-50
2022/12/26 14:57:45;;;;;;;3.70;1.25;;;9.50;99.90;;;;;;5052999;28;20170;-50
2022/12/26 15:00:19;;;;;;;3.80;1.33;;;9.40;99.90;;;;;;5052927;28;20219;-44
2022/12/26 15:03:09;;;;;;;5.22;1.77;;;9.30;99.90;;;;;;5052822;28;20214;-51
2022/12/26 15:05:41;;;;;;;3.72;1.38;;;9.30;99.90;;;;;;5048906;28;20245;-51
2022/12/26 15:08:31;;;;;;;1.48;1.25;;;9.30;99.90;;;;;;5053195;28;20232;-52
2022/12/26 15:11:18;;;;;;;3.60;1.50;;;9.20;99.90;;;;;;5052815;28;20166;-51
2022/12/26 15:14:23;;;;;;;4.72;1.65;;;9.20;99.90;;;;;;5052587;28;20179;-50
2022/12/26 15:17:35;;;;;;;5.78;1.40;;;9.10;99.90;;;;;;5052835;28;20249;-45
2022/12/26 15:20:14;;;;;;;1.88;1.17;;;9.00;99.90;;;;;;5030598;28;20203;-46
2022/12/26 15:22:50;;;;;;;4.35;1.55;;;9.00;99.90;;;;;;5052305;28;20656;-45
2022/12/26 15:25:46;;;;;;;9.35;1.42;;;8.90;99.90;;;;;;5052649;28;20296;-46
2022/12/26 15:28:33;;;;;;;5.72;1.50;;;8.90;99.90;;;;;;5052452;28;20163;-44
2022/12/26 15:31:29;;;;;;;7.60;2.10;;;8.90;99.90;;;;;;5052429;28;20577;-44